Portada
METAR-TAF:

METAR-TAF

Aeropuertos :

Cervia, Italia

latitud: 44-13N, longitud: 012-18E, altitud: 6 m

Observación

El informe se hizo hace 34 minutos, a las 05:55 UTC
Viento 3 kt del sur
Temperatura 18°C
Humedad 77%
Presión 1006 hPa
Visibilidad 10 km o más
sin nubes por debajo de 1500 m y sin presencia de cumulonimbus.

METAR: LIPC 070555Z 18003KT CAVOK 18/14 Q1006 RMK FEW FEW200 VIS MIN 9999 WIND THR11 18003KT WIND THR29 15004KT BLU

Hora: 08:29 (06:29 UTC)

Pronóstico

El informe se hizo hace 1 hora y 29 minutos, a las 05:00 UTC
Pronóstico válido del 07 a las 06 UTC al 07 a las 15 UTC
Viento 8 kt del sur-sureste
Visibilidad 10 km o más
Escasas nubes a una altura de 3500 ft
Temporalmente
del 07 a las 09 UTC al 07 a las 15 UTC
Visibilidad: 7000 m
Nubes dispersas a una altura de 2500 ft
lluvia

TAF: LIPC 070500Z 0706/0715 15008KT 9999 FEW035 TEMPO 0709/0715 7000 RA SCT025

Observaciones y pronósticos meteorológicos de más de 4000 aeropuertos (mensajes METAR y TAF).

Los puntos amarillos y rojos representan las estaciones disponibles.

Ponga el ratón en el punto deseado para ver el nombre de la estación.

Haga clic para ver las observaciones y los pronósticos meteorológicos.

Para cambiar el mapa : haga clic en los botones verdes con una cruz de color negro para hacer un zoom, en el botón verde con un guión para alejar o en las flechas verdes para mapas adyacentes.


METAR-TAF: